Time;durP1;ratioP1;P1;durP2;ratioP2;P2;SDS_P1;SDS_P2;PMS_P1;PMS_P2;Temp;Humidity;BMP_temperature;BMP_pressure;BME280_temperature;BME280_humidity;BME280_pressure;Samples;Min_cycle;Max_cycle;Signal;HPM_P1;HPM_P2
2020/12/06 00:01:56;;;;;;;6.82;3.25;;;3.00;99.90;;;;;;5009129;28;20095;-68
2020/12/06 00:04:21;;;;;;;9.93;3.78;;;3.00;99.90;;;;;;5008890;28;20041;-67
2020/12/06 00:06:48;;;;;;;8.02;3.35;;;3.00;99.90;;;;;;5008743;28;20033;-67
2020/12/06 00:09:14;;;;;;;8.52;3.95;;;3.00;99.90;;;;;;5008555;28;20037;-67
2020/12/06 00:11:40;;;;;;;10.13;3.47;;;2.90;99.90;;;;;;5007833;28;20030;-66
2020/12/06 00:14:06;;;;;;;8.55;3.50;;;2.90;99.90;;;;;;5008259;28;20030;-67
2020/12/06 00:16:31;;;;;;;6.50;3.35;;;2.90;99.90;;;;;;5007535;28;20610;-67
2020/12/06 00:18:57;;;;;;;6.60;3.83;;;2.90;99.90;;;;;;5031715;28;20037;-68
2020/12/06 00:21:23;;;;;;;6.97;4.05;;;2.90;99.90;;;;;;5008616;28;20069;-67
2020/12/06 00:23:49;;;;;;;8.15;4.05;;;2.90;99.90;;;;;;5008707;28;20072;-67
2020/12/06 00:26:23;;;;;;;8.02;4.30;;;2.90;99.90;;;;;;5005504;28;20041;-68
2020/12/06 00:28:50;;;;;;;8.13;4.38;;;2.90;99.90;;;;;;5004185;28;20037;-68
2020/12/06 00:31:15;;;;;;;11.63;4.07;;;2.90;99.90;;;;;;5008435;28;20041;-67
2020/12/06 00:33:42;;;;;;;8.77;4.53;;;2.90;99.90;;;;;;5008759;28;20368;-68
2020/12/06 00:36:12;;;;;;;7.97;4.07;;;2.90;99.90;;;;;;5008000;28;20034;-66
2020/12/06 00:38:38;;;;;;;5.20;3.00;;;3.00;99.90;;;;;;5007082;28;20128;-67
2020/12/06 00:41:04;;;;;;;13.30;5.60;;;2.90;99.90;;;;;;5006580;28;20038;-67
2020/12/06 00:43:30;;;;;;;11.85;3.90;;;2.90;99.90;;;;;;5008486;28;20029;-67
2020/12/06 00:45:56;;;;;;;13.43;4.70;;;2.90;99.90;;;;;;5008467;28;20796;-67
2020/12/06 00:48:21;;;;;;;10.95;4.43;;;2.80;99.90;;;;;;5007221;28;20038;-68
2020/12/06 00:50:47;;;;;;;9.00;4.35;;;2.90;99.90;;;;;;5006655;28;20022;-68
2020/12/06 00:53:12;;;;;;;10.38;4.68;;;2.90;99.90;;;;;;5027295;28;20399;-67
2020/12/06 00:55:38;;;;;;;9.80;4.60;;;2.80;99.90;;;;;;5008090;28;20121;-67
2020/12/06 00:58:03;;;;;;;8.27;3.95;;;2.80;99.90;;;;;;5008246;28;20034;-67
2020/12/06 01:00:29;;;;;;;11.93;4.40;;;2.80;99.90;;;;;;5007578;28;20052;-68
2020/12/06 01:02:55;;;;;;;10.05;3.67;;;2.80;99.90;;;;;;5008100;28;20080;-71
2020/12/06 01:05:21;;;;;;;7.38;4.20;;;2.70;99.90;;;;;;5007425;28;20034;-67
2020/12/06 01:07:46;;;;;;;8.98;4.63;;;2.70;99.90;;;;;;5008615;28;20088;-68
2020/12/06 01:10:12;;;;;;;12.23;4.25;;;2.60;99.90;;;;;;5008352;28;20038;-69
2020/12/06 01:12:40;;;;;;;9.32;4.25;;;2.60;99.90;;;;;;5007921;28;20026;-69
2020/12/06 01:15:09;;;;;;;10.05;4.07;;;2.60;99.90;;;;;;5008730;28;20038;-66
2020/12/06 01:17:34;;;;;;;7.55;4.30;;;2.70;99.90;;;;;;5007822;28;20030;-67
2020/12/06 01:20:00;;;;;;;9.48;5.30;;;2.60;99.90;;;;;;5007907;28;20384;-67
2020/12/06 01:22:26;;;;;;;10.35;4.88;;;2.60;99.90;;;;;;5007863;28;20030;-66
2020/12/06 01:24:52;;;;;;;11.32;4.43;;;2.60;99.90;;;;;;5008194;28;20345;-67
2020/12/06 01:27:17;;;;;;;9.60;5.90;;;2.60;99.90;;;;;;5008244;28;20026;-68
2020/12/06 01:29:43;;;;;;;10.05;4.60;;;2.60;99.90;;;;;;5007402;28;20025;-68
2020/12/06 01:32:09;;;;;;;9.45;4.78;;;2.60;99.90;;;;;;5008163;28;20022;-67
2020/12/06 01:34:35;;;;;;;11.27;4.85;;;2.60;99.90;;;;;;5007261;28;20045;-67
2020/12/06 01:37:00;;;;;;;9.93;4.88;;;2.60;99.90;;;;;;5007490;28;20057;-67
2020/12/06 01:39:26;;;;;;;9.50;5.03;;;2.60;99.90;;;;;;5007589;28;20061;-67
2020/12/06 01:41:56;;;;;;;10.45;5.15;;;2.60;99.90;;;;;;5007976;28;20455;-68
2020/12/06 01:44:23;;;;;;;10.18;5.38;;;2.60;99.90;;;;;;5007845;28;20042;-68
2020/12/06 01:46:49;;;;;;;8.65;4.72;;;2.60;99.90;;;;;;5007590;28;20478;-67
2020/12/06 01:49:17;;;;;;;12.15;4.53;;;2.60;99.90;;;;;;5007717;28;20034;-68
2020/12/06 01:51:44;;;;;;;11.82;6.07;;;2.60;99.90;;;;;;5007552;28;20034;-67
2020/12/06 01:54:09;;;;;;;13.80;5.90;;;2.60;99.90;;;;;;5003975;28;20038;-66
2020/12/06 01:56:35;;;;;;;8.55;4.65;;;2.60;99.90;;;;;;5007424;28;20030;-67
2020/12/06 01:59:00;;;;;;;11.93;4.85;;;2.50;99.90;;;;;;5007778;28;20034;-67
2020/12/06 02:01:26;;;;;;;15.75;6.63;;;2.60;99.90;;;;;;5006479;28;20030;-67
2020/12/06 02:03:54;;;;;;;14.40;5.65;;;2.50;99.90;;;;;;5006150;28;20557;-66
2020/12/06 02:06:19;;;;;;;10.68;5.40;;;2.50;99.90;;;;;;5007825;28;20455;-67
2020/12/06 02:08:48;;;;;;;17.77;7.03;;;2.50;99.90;;;;;;5007218;28;20053;-68
2020/12/06 02:11:28;;;;;;;10.80;5.57;;;2.50;99.90;;;;;;5007788;28;20505;-67
2020/12/06 02:13:54;;;;;;;12.98;5.80;;;2.50;99.90;;;;;;5007284;28;20033;-67
2020/12/06 02:16:19;;;;;;;13.48;5.57;;;2.40;99.90;;;;;;5009705;28;20133;-68
2020/12/06 02:18:45;;;;;;;15.25;6.05;;;2.40;99.90;;;;;;5010168;28;20042;-67
2020/12/06 02:21:10;;;;;;;15.77;6.70;;;2.40;99.90;;;;;;5011314;28;20037;-67
2020/12/06 02:23:36;;;;;;;13.60;6.75;;;2.30;99.90;;;;;;5010693;28;20061;-68
2020/12/06 02:26:02;;;;;;;11.57;6.03;;;2.40;99.90;;;;;;5011030;28;20121;-67
2020/12/06 02:28:27;;;;;;;15.10;6.32;;;2.40;99.90;;;;;;5011218;28;20072;-68
2020/12/06 02:30:53;;;;;;;14.00;6.10;;;2.40;99.90;;;;;;5033926;28;20034;-67
2020/12/06 02:33:19;;;;;;;13.88;6.88;;;2.40;99.90;;;;;;5011112;28;20049;-67
2020/12/06 02:35:44;;;;;;;14.20;6.30;;;2.40;99.90;;;;;;5010253;28;20418;-67
2020/12/06 02:38:11;;;;;;;13.80;6.38;;;2.30;99.90;;;;;;5010825;28;20041;-67
2020/12/06 02:40:36;;;;;;;15.45;6.55;;;2.40;99.90;;;;;;5006786;28;20030;-70
2020/12/06 02:43:02;;;;;;;14.63;6.88;;;2.40;99.90;;;;;;5010811;28;20034;-66
2020/12/06 02:45:27;;;;;;;13.48;6.13;;;2.40;99.90;;;;;;5010842;28;20048;-66
2020/12/06 02:47:53;;;;;;;13.27;6.53;;;2.50;99.90;;;;;;5010745;28;20033;-67
2020/12/06 02:50:18;;;;;;;11.90;5.88;;;2.50;99.90;;;;;;5034184;28;20129;-67
2020/12/06 02:52:44;;;;;;;13.00;5.88;;;2.50;99.90;;;;;;5011844;28;20033;-69
2020/12/06 02:55:09;;;;;;;12.00;5.82;;;2.50;99.90;;;;;;5027942;28;20030;-70
2020/12/06 02:57:35;;;;;;;15.68;6.30;;;2.50;99.90;;;;;;5024693;28;20065;-68
2020/12/06 03:00:00;;;;;;;14.35;6.55;;;2.50;99.90;;;;;;5023641;28;20042;-67
2020/12/06 03:02:26;;;;;;;15.30;6.82;;;2.50;99.90;;;;;;5038117;28;20053;-67
2020/12/06 03:04:51;;;;;;;14.20;6.70;;;2.60;99.90;;;;;;5011089;28;20060;-68
2020/12/06 03:07:17;;;;;;;16.65;6.82;;;2.60;99.90;;;;;;5010588;28;20041;-66
2020/12/06 03:09:42;;;;;;;14.52;7.80;;;2.60;99.90;;;;;;5009831;28;20037;-70
2020/12/06 03:12:08;;;;;;;11.82;6.53;;;2.60;99.90;;;;;;5010299;28;20037;-67
2020/12/06 03:14:33;;;;;;;12.13;5.90;;;2.60;99.90;;;;;;5006227;28;20391;-68
2020/12/06 03:16:59;;;;;;;15.30;7.10;;;2.60;99.90;;;;;;5008556;28;20116;-67
2020/12/06 03:19:25;;;;;;;14.07;6.28;;;2.50;99.90;;;;;;5027218;28;20173;-67
2020/12/06 03:21:50;;;;;;;13.93;6.57;;;2.60;99.90;;;;;;5009591;28;20038;-69
2020/12/06 03:24:16;;;;;;;13.57;5.72;;;2.50;99.90;;;;;;5010072;28;20037;-67
2020/12/06 03:26:41;;;;;;;11.68;6.28;;;2.50;99.90;;;;;;5009807;28;20030;-67
2020/12/06 03:29:07;;;;;;;15.30;6.40;;;2.50;99.90;;;;;;5008226;28;20087;-68
2020/12/06 03:31:32;;;;;;;13.63;7.25;;;2.50;99.90;;;;;;5009892;28;20728;-68
2020/12/06 03:33:58;;;;;;;16.10;6.95;;;2.50;99.90;;;;;;5009652;28;20061;-67
2020/12/06 03:36:24;;;;;;;17.15;6.05;;;2.50;99.90;;;;;;5007952;28;20038;-68
2020/12/06 03:38:49;;;;;;;11.02;6.03;;;2.40;99.90;;;;;;5032735;28;20053;-67
2020/12/06 03:41:15;;;;;;;12.60;6.13;;;2.40;99.90;;;;;;5009780;28;20096;-67
2020/12/06 03:43:40;;;;;;;14.43;6.55;;;2.40;99.90;;;;;;5033646;28;20038;-66
2020/12/06 03:46:06;;;;;;;14.82;6.68;;;2.50;99.90;;;;;;5009074;28;20402;-68
2020/12/06 03:48:31;;;;;;;15.57;7.47;;;2.50;99.90;;;;;;5009337;28;20473;-69
2020/12/06 03:50:57;;;;;;;13.00;6.07;;;2.40;99.90;;;;;;5009137;28;20104;-66
2020/12/06 03:53:22;;;;;;;13.18;6.18;;;2.40;99.90;;;;;;5009731;28;20030;-68
2020/12/06 03:55:48;;;;;;;13.73;6.93;;;2.40;99.90;;;;;;5009445;28;20030;-69
2020/12/06 03:58:13;;;;;;;11.63;6.40;;;2.40;99.90;;;;;;5008968;28;20058;-67
2020/12/06 04:00:39;;;;;;;14.63;6.40;;;2.40;99.90;;;;;;5009549;28;20526;-67
2020/12/06 04:03:05;;;;;;;12.40;6.57;;;2.40;99.90;;;;;;5031868;28;20041;-67
2020/12/06 04:05:30;;;;;;;12.63;6.00;;;2.30;99.90;;;;;;5009100;28;20034;-68
2020/12/06 04:07:56;;;;;;;14.15;6.25;;;2.30;99.90;;;;;;5008889;28;20095;-67
2020/12/06 04:10:21;;;;;;;13.52;6.60;;;2.20;99.90;;;;;;5009310;28;20049;-68
2020/12/06 04:12:47;;;;;;;16.27;6.65;;;2.20;99.90;;;;;;5009357;28;20030;-67
2020/12/06 04:15:12;;;;;;;14.05;6.45;;;2.20;99.90;;;;;;5008269;28;20030;-68
2020/12/06 04:17:39;;;;;;;13.25;6.88;;;2.20;99.90;;;;;;5008940;28;20029;-69
2020/12/06 04:20:06;;;;;;;9.35;5.60;;;2.20;99.90;;;;;;5008328;28;20652;-68
2020/12/06 04:22:31;;;;;;;10.05;5.60;;;2.10;99.90;;;;;;5001295;28;20113;-67
2020/12/06 04:24:57;;;;;;;14.00;6.00;;;2.10;99.90;;;;;;5008418;28;20526;-67
2020/12/06 04:27:23;;;;;;;16.23;7.18;;;2.20;99.90;;;;;;5008603;28;20030;-66
2020/12/06 04:29:48;;;;;;;11.38;5.78;;;2.10;99.90;;;;;;5008907;28;20037;-67
2020/12/06 04:32:14;;;;;;;15.88;6.97;;;2.10;99.90;;;;;;5008364;28;20031;-67
2020/12/06 04:34:40;;;;;;;12.77;6.57;;;2.10;99.90;;;;;;5008880;28;20022;-67
2020/12/06 04:37:06;;;;;;;14.80;7.43;;;2.10;99.90;;;;;;5008735;28;20057;-67
2020/12/06 04:39:33;;;;;;;15.15;7.18;;;2.10;99.90;;;;;;5008786;28;20038;-68
2020/12/06 04:42:00;;;;;;;14.98;6.70;;;2.10;99.90;;;;;;5008620;28;20030;-67
2020/12/06 04:44:26;;;;;;;14.63;7.13;;;2.10;99.90;;;;;;5008314;28;20138;-68
2020/12/06 04:47:01;;;;;;;16.63;7.70;;;2.10;99.90;;;;;;5008565;28;20128;-67
2020/12/06 04:49:42;;;;;;;13.73;6.80;;;2.10;99.90;;;;;;5007865;28;20025;-69
2020/12/06 04:52:15;;;;;;;14.05;6.90;;;2.10;99.90;;;;;;5005219;28;20026;-67
2020/12/06 04:54:42;;;;;;;14.68;6.70;;;2.10;99.90;;;;;;5008739;28;20029;-67
2020/12/06 04:57:10;;;;;;;14.48;7.07;;;2.10;99.90;;;;;;5006525;28;20034;-68
2020/12/06 04:59:41;;;;;;;16.15;7.75;;;2.20;99.90;;;;;;5008344;28;20053;-68
2020/12/06 05:02:10;;;;;;;15.65;7.43;;;2.10;99.90;;;;;;5006868;28;20129;-68
2020/12/06 05:04:40;;;;;;;17.45;7.90;;;2.10;99.90;;;;;;5008551;28;20391;-69
2020/12/06 05:07:05;;;;;;;13.52;7.60;;;2.10;99.90;;;;;;5008337;28;20501;-67
2020/12/06 05:09:35;;;;;;;13.32;7.78;;;2.20;99.90;;;;;;5007726;28;20041;-67
2020/12/06 05:12:01;;;;;;;14.48;6.72;;;2.10;99.90;;;;;;5004763;28;20396;-68
2020/12/06 05:14:27;;;;;;;13.82;6.55;;;2.20;99.90;;;;;;5003843;28;20406;-67
2020/12/06 05:16:55;;;;;;;13.48;6.95;;;2.20;99.90;;;;;;5008400;28;20030;-66
2020/12/06 05:19:24;;;;;;;14.50;6.18;;;2.20;99.90;;;;;;5007255;28;20042;-67
2020/12/06 05:21:50;;;;;;;14.18;6.40;;;2.20;99.90;;;;;;5008313;28;20069;-68
2020/12/06 05:24:16;;;;;;;13.75;6.18;;;2.20;99.90;;;;;;5007551;28;20077;-68
2020/12/06 05:26:41;;;;;;;11.45;6.50;;;2.30;99.90;;;;;;5008064;28;20037;-67
2020/12/06 05:29:07;;;;;;;14.27;6.60;;;2.30;99.90;;;;;;5008502;28;20033;-67
2020/12/06 05:31:32;;;;;;;13.20;6.32;;;2.20;99.90;;;;;;5007836;28;20034;-69
2020/12/06 05:33:58;;;;;;;15.18;7.00;;;2.20;99.90;;;;;;5008167;28;20026;-66
2020/12/06 05:36:24;;;;;;;12.52;6.38;;;2.20;99.90;;;;;;5007378;28;20069;-66
2020/12/06 05:38:50;;;;;;;11.07;6.20;;;2.20;99.90;;;;;;5008007;28;20410;-67
2020/12/06 05:41:16;;;;;;;12.63;6.15;;;2.20;99.90;;;;;;5007467;28;20046;-69
2020/12/06 05:43:41;;;;;;;16.60;7.18;;;2.30;99.90;;;;;;5008155;28;20033;-68
2020/12/06 05:46:09;;;;;;;15.43;7.07;;;2.20;99.90;;;;;;5031303;28;20079;-67
2020/12/06 05:48:35;;;;;;;13.88;6.47;;;2.20;99.90;;;;;;5007182;28;20127;-67
2020/12/06 05:51:01;;;;;;;13.75;6.55;;;2.20;99.90;;;;;;5009837;28;20041;-67
2020/12/06 05:53:28;;;;;;;17.33;8.20;;;2.20;99.90;;;;;;5011188;28;20068;-67
2020/12/06 05:56:14;;;;;;;11.95;6.53;;;2.20;99.90;;;;;;5011722;28;20026;-67
2020/12/06 05:58:42;;;;;;;17.02;7.15;;;2.20;99.90;;;;;;5009183;28;20402;-68
2020/12/06 06:01:12;;;;;;;14.85;6.07;;;2.20;99.90;;;;;;5011783;28;20057;-67
2020/12/06 06:03:42;;;;;;;13.60;6.55;;;2.20;99.90;;;;;;5010900;28;20630;-67
2020/12/06 06:06:11;;;;;;;12.32;7.05;;;2.20;99.90;;;;;;5011306;28;20402;-68
2020/12/06 06:08:41;;;;;;;12.27;6.10;;;2.20;99.90;;;;;;5010789;28;20121;-66
2020/12/06 06:11:20;;;;;;;12.98;6.35;;;2.30;99.90;;;;;;5011410;28;20061;-68
2020/12/06 06:13:51;;;;;;;15.85;7.28;;;2.30;99.90;;;;;;5011072;28;20042;-67
2020/12/06 06:16:22;;;;;;;16.50;6.00;;;2.30;99.90;;;;;;5011330;28;20046;-67
2020/12/06 06:18:51;;;;;;;12.68;6.40;;;2.20;99.90;;;;;;5010445;28;20533;-67
2020/12/06 06:21:25;;;;;;;12.88;6.40;;;2.30;99.90;;;;;;5011141;28;20056;-68
2020/12/06 06:23:53;;;;;;;12.38;6.15;;;2.30;99.90;;;;;;5010619;28;20510;-67
2020/12/06 06:26:22;;;;;;;14.90;6.72;;;2.30;99.90;;;;;;5010988;28;20117;-67
2020/12/06 06:28:47;;;;;;;11.65;5.75;;;2.30;99.90;;;;;;5010757;28;20047;-69
2020/12/06 06:31:15;;;;;;;15.45;6.25;;;2.30;99.90;;;;;;5011157;28;20030;-66
2020/12/06 06:33:40;;;;;;;11.93;5.68;;;2.30;99.90;;;;;;5034170;28;20586;-68
2020/12/06 06:36:09;;;;;;;11.60;6.45;;;2.30;99.90;;;;;;5034147;28;20113;-68
2020/12/06 06:38:44;;;;;;;10.60;5.68;;;2.30;99.90;;;;;;5009086;28;20132;-68
2020/12/06 06:41:11;;;;;;;16.58;6.70;;;2.30;99.90;;;;;;5010878;28;20053;-67
2020/12/06 06:43:38;;;;;;;11.30;6.40;;;2.30;99.90;;;;;;5010266;28;20022;-67
2020/12/06 06:46:13;;;;;;;13.90;7.20;;;2.30;99.90;;;;;;5010633;28;20034;-67
2020/12/06 06:48:38;;;;;;;12.57;6.07;;;2.30;99.90;;;;;;5009690;28;20037;-68
2020/12/06 06:51:04;;;;;;;13.25;6.53;;;2.30;99.90;;;;;;5009679;28;20036;-66
2020/12/06 06:53:30;;;;;;;12.35;6.22;;;2.30;99.90;;;;;;5010354;28;20092;-67
2020/12/06 06:55:59;;;;;;;10.57;5.40;;;2.30;99.90;;;;;;5010226;28;20038;-68
2020/12/06 06:58:28;;;;;;;12.23;6.80;;;2.30;99.90;;;;;;5010458;28;20062;-67
2020/12/06 07:01:15;;;;;;;12.50;5.70;;;2.30;99.90;;;;;;5004837;28;20045;-67
2020/12/06 07:03:46;;;;;;;12.57;6.15;;;2.30;99.90;;;;;;5008515;28;20739;-69
2020/12/06 07:06:14;;;;;;;12.95;6.03;;;2.30;99.90;;;;;;5010638;28;20041;-67
2020/12/06 07:08:39;;;;;;;12.55;6.10;;;2.30;99.90;;;;;;5009943;28;20494;-67
2020/12/06 07:11:06;;;;;;;11.20;6.32;;;2.30;99.90;;;;;;5010647;28;20044;-70
2020/12/06 07:13:32;;;;;;;13.48;6.28;;;2.30;99.90;;;;;;5010354;28;20037;-70
2020/12/06 07:15:58;;;;;;;15.38;7.30;;;2.30;99.90;;;;;;5009673;28;20495;-67
2020/12/06 07:18:23;;;;;;;11.82;6.63;;;2.30;99.90;;;;;;5010100;28;20052;-68
2020/12/06 07:20:49;;;;;;;11.88;6.25;;;2.40;99.90;;;;;;5009452;28;20054;-67
2020/12/06 07:23:14;;;;;;;14.00;6.53;;;2.30;99.90;;;;;;5033777;28;20085;-66
2020/12/06 07:25:40;;;;;;;13.60;6.82;;;2.30;99.90;;;;;;5009455;28;20214;-67
2020/12/06 07:28:06;;;;;;;14.95;6.78;;;2.30;99.90;;;;;;5009918;28;20034;-69
2020/12/06 07:30:31;;;;;;;14.20;6.38;;;2.30;99.90;;;;;;5009741;28;20710;-67
2020/12/06 07:32:57;;;;;;;12.63;6.65;;;2.30;99.90;;;;;;5009456;28;20030;-68
2020/12/06 07:35:24;;;;;;;17.10;7.82;;;2.30;99.90;;;;;;5032825;28;20066;-67
2020/12/06 07:37:58;;;;;;;25.05;11.73;;;2.30;99.90;;;;;;5005908;28;20060;-68
2020/12/06 07:40:24;;;;;;;29.48;13.50;;;2.30;99.90;;;;;;5006058;28;20054;-67
2020/12/06 07:42:49;;;;;;;35.10;15.20;;;2.20;99.90;;;;;;5009600;28;20049;-67
2020/12/06 07:45:15;;;;;;;23.65;10.68;;;2.20;99.90;;;;;;5009192;28;20034;-68
2020/12/06 07:47:40;;;;;;;20.80;9.07;;;2.20;99.90;;;;;;5009456;28;20033;-67
2020/12/06 07:50:07;;;;;;;15.82;8.13;;;2.30;99.90;;;;;;5009176;28;20042;-67
2020/12/06 07:52:35;;;;;;;16.27;8.25;;;2.30;99.90;;;;;;5009264;28;20041;-67
2020/12/06 07:55:02;;;;;;;13.82;7.72;;;2.30;99.90;;;;;;5009491;28;20050;-67
2020/12/06 07:57:53;;;;;;;15.50;7.90;;;2.30;99.90;;;;;;5008678;28;20504;-68
2020/12/06 08:00:21;;;;;;;13.95;6.82;;;2.40;99.90;;;;;;5005177;28;20715;-66
2020/12/06 08:02:56;;;;;;;13.77;7.38;;;2.40;99.90;;;;;;5009393;28;20403;-67
2020/12/06 08:05:25;;;;;;;15.65;7.93;;;2.40;99.90;;;;;;5005358;28;20045;-69
2020/12/06 08:07:57;;;;;;;18.77;8.20;;;2.50;99.90;;;;;;5009567;28;20049;-67
2020/12/06 08:10:26;;;;;;;13.50;7.18;;;2.50;99.90;;;;;;5004117;28;20388;-67
2020/12/06 08:12:54;;;;;;;14.18;7.47;;;2.40;99.90;;;;;;5008791;28;20033;-67
2020/12/06 08:15:24;;;;;;;13.75;6.82;;;2.50;99.90;;;;;;5004947;28;20038;-67
2020/12/06 08:17:51;;;;;;;14.32;7.60;;;2.50;99.90;;;;;;5007464;28;20034;-67
2020/12/06 08:20:19;;;;;;;12.63;7.00;;;2.60;99.90;;;;;;5004261;28;20411;-68
2020/12/06 08:22:52;;;;;;;14.63;6.90;;;2.60;99.90;;;;;;5009151;28;20026;-67
2020/12/06 08:25:21;;;;;;;17.92;7.80;;;2.60;99.90;;;;;;5003602;28;20599;-68
2020/12/06 08:27:48;;;;;;;11.93;6.75;;;2.60;99.90;;;;;;5007025;28;20041;-68
2020/12/06 08:30:19;;;;;;;14.60;6.45;;;2.60;99.90;;;;;;5011381;28;20041;-68
2020/12/06 08:32:59;;;;;;;12.05;6.80;;;2.60;99.90;;;;;;5008347;28;20034;-67
2020/12/06 08:35:56;;;;;;;15.33;7.33;;;2.60;99.90;;;;;;5000879;28;20071;-70
2020/12/06 08:38:28;;;;;;;15.25;7.65;;;2.60;99.90;;;;;;5004228;28;20293;-69
2020/12/06 08:41:08;;;;;;;11.15;6.03;;;2.60;99.90;;;;;;4996939;28;20033;-68
2020/12/06 08:43:52;;;;;;;15.20;7.32;;;2.70;99.90;;;;;;5007893;28;20034;-67
2020/12/06 08:46:19;;;;;;;15.30;7.38;;;2.80;99.90;;;;;;5004857;28;20050;-67
2020/12/06 08:48:45;;;;;;;15.60;6.72;;;2.80;99.90;;;;;;5007500;28;20069;-67
2020/12/06 08:51:39;;;;;;;14.70;7.22;;;2.80;99.90;;;;;;5008322;28;20060;-67
2020/12/06 08:54:08;;;;;;;14.80;7.10;;;2.80;99.90;;;;;;5006635;28;20089;-67
2020/12/06 08:56:37;;;;;;;21.30;8.77;;;2.80;99.90;;;;;;5007358;28;20049;-67
2020/12/06 08:59:14;;;;;;;15.80;6.82;;;2.80;99.90;;;;;;5007560;28;20041;-68
2020/12/06 09:01:50;;;;;;;17.67;7.95;;;2.90;99.90;;;;;;5007105;28;20503;-66
2020/12/06 09:04:16;;;;;;;14.82;7.20;;;2.90;99.90;;;;;;5004979;28;20066;-67
2020/12/06 09:06:42;;;;;;;15.57;7.78;;;2.90;99.90;;;;;;5006767;28;20030;-67
2020/12/06 09:09:08;;;;;;;14.50;7.55;;;2.90;99.90;;;;;;5007790;28;20104;-67
2020/12/06 09:11:34;;;;;;;17.45;8.10;;;3.00;99.90;;;;;;5007991;28;20100;-67
2020/12/06 09:14:00;;;;;;;15.85;7.78;;;3.00;99.90;;;;;;5007925;28;20433;-69
2020/12/06 09:16:26;;;;;;;14.63;6.80;;;3.00;99.90;;;;;;5006854;28;20100;-68
2020/12/06 09:18:51;;;;;;;16.50;7.70;;;3.10;99.90;;;;;;5009346;28;20518;-69
2020/12/06 09:21:17;;;;;;;15.63;8.10;;;3.10;99.90;;;;;;5011968;28;20041;-68
2020/12/06 09:23:44;;;;;;;17.80;7.95;;;3.10;99.90;;;;;;5012922;28;20030;-67
2020/12/06 09:26:10;;;;;;;14.15;7.43;;;3.10;99.90;;;;;;5014865;28;20034;-68
2020/12/06 09:28:35;;;;;;;14.32;6.63;;;3.20;99.90;;;;;;5012135;28;20057;-67
2020/12/06 09:31:01;;;;;;;16.02;7.47;;;3.20;99.90;;;;;;5010176;28;20030;-67
2020/12/06 09:33:27;;;;;;;15.25;7.15;;;3.20;99.90;;;;;;5011911;28;20041;-67
2020/12/06 09:35:52;;;;;;;13.82;6.90;;;3.20;99.90;;;;;;5011873;28;20034;-70
2020/12/06 09:38:18;;;;;;;18.85;7.50;;;3.20;99.90;;;;;;5011042;28;20184;-67
2020/12/06 09:40:44;;;;;;;18.70;8.02;;;3.30;99.90;;;;;;5011812;28;20037;-67
2020/12/06 09:43:10;;;;;;;14.85;7.22;;;3.30;99.90;;;;;;5011311;28;20054;-67
2020/12/06 09:45:37;;;;;;;18.20;7.82;;;3.30;99.90;;;;;;5011611;28;20042;-68
2020/12/06 09:48:03;;;;;;;15.70;7.60;;;3.30;99.90;;;;;;5011406;28;20038;-69
2020/12/06 09:50:29;;;;;;;13.82;6.95;;;3.30;99.90;;;;;;5011139;28;20037;-68
2020/12/06 09:52:54;;;;;;;18.63;8.30;;;3.40;99.90;;;;;;5011624;28;20471;-67
2020/12/06 09:55:20;;;;;;;14.13;7.45;;;3.40;99.90;;;;;;5011080;28;20038;-67
2020/12/06 09:57:45;;;;;;;13.80;7.22;;;3.40;99.90;;;;;;5011198;28;20022;-69
2020/12/06 10:00:11;;;;;;;16.75;7.40;;;3.40;99.90;;;;;;5011187;28;20030;-67
2020/12/06 10:02:37;;;;;;;21.08;7.43;;;3.50;99.90;;;;;;5034426;28;20030;-67
2020/12/06 10:05:02;;;;;;;14.45;7.30;;;3.50;99.90;;;;;;5011069;28;20045;-70
2020/12/06 10:07:28;;;;;;;18.80;8.55;;;3.50;99.90;;;;;;5011764;28;20037;-68
2020/12/06 10:09:54;;;;;;;14.85;7.63;;;3.50;99.90;;;;;;5011015;28;20040;-69
2020/12/06 10:12:19;;;;;;;18.80;8.32;;;3.60;99.90;;;;;;5010700;28;20029;-68
2020/12/06 10:14:45;;;;;;;14.45;7.38;;;3.70;99.90;;;;;;5011331;28;20040;-67
2020/12/06 10:17:11;;;;;;;15.70;7.18;;;3.70;99.90;;;;;;5010952;28;20030;-68
2020/12/06 10:19:37;;;;;;;15.60;7.63;;;3.70;99.90;;;;;;5010996;28;20376;-67
2020/12/06 10:22:02;;;;;;;14.80;7.75;;;3.80;99.90;;;;;;5011365;28;20130;-67
2020/12/06 10:24:28;;;;;;;15.93;7.43;;;3.80;99.90;;;;;;5010957;28;20345;-67
2020/12/06 10:26:56;;;;;;;15.85;7.72;;;3.90;99.90;;;;;;5011232;28;20034;-67
2020/12/06 10:29:22;;;;;;;14.48;7.03;;;3.90;99.90;;;;;;5010803;28;20041;-67
2020/12/06 10:31:55;;;;;;;14.98;7.07;;;3.90;99.90;;;;;;5011150;28;20402;-68
2020/12/06 10:34:21;;;;;;;15.40;7.40;;;3.90;99.90;;;;;;5010997;28;20038;-67
2020/12/06 10:36:55;;;;;;;12.30;6.85;;;4.00;99.90;;;;;;5010614;28;20065;-67
2020/12/06 10:39:21;;;;;;;15.90;7.05;;;4.00;99.90;;;;;;5010772;28;20104;-67
2020/12/06 10:41:51;;;;;;;15.10;7.38;;;4.00;99.90;;;;;;5010866;28;20112;-67
2020/12/06 10:44:17;;;;;;;12.50;6.18;;;4.00;99.90;;;;;;5010263;28;20030;-67
2020/12/06 10:46:43;;;;;;;16.00;8.48;;;4.00;99.90;;;;;;5009053;28;20034;-67
2020/12/06 10:49:09;;;;;;;15.30;8.00;;;4.00;99.90;;;;;;5014103;28;20048;-67
2020/12/06 10:51:34;;;;;;;14.05;7.60;;;4.00;99.90;;;;;;5008803;28;20034;-67
2020/12/06 10:54:00;;;;;;;15.30;6.55;;;4.00;99.90;;;;;;5010486;28;20117;-68
2020/12/06 10:56:26;;;;;;;15.68;8.10;;;4.00;99.90;;;;;;5010202;28;20046;-67
2020/12/06 10:58:53;;;;;;;19.83;8.05;;;4.00;99.90;;;;;;5010359;28;20052;-68
2020/12/06 11:01:19;;;;;;;16.08;7.75;;;4.00;99.90;;;;;;5009962;28;20034;-67
2020/12/06 11:03:44;;;;;;;16.20;7.63;;;4.00;99.90;;;;;;5010684;28;20033;-67
2020/12/06 11:06:10;;;;;;;15.65;7.88;;;4.00;99.90;;;;;;5010444;28;20368;-68
2020/12/06 11:08:35;;;;;;;18.48;7.90;;;4.10;99.90;;;;;;5010336;28;20078;-67
2020/12/06 11:11:01;;;;;;;17.40;8.00;;;4.10;99.90;;;;;;5010549;28;20041;-67
2020/12/06 11:13:26;;;;;;;15.98;8.02;;;4.20;99.90;;;;;;5010264;28;20254;-67
2020/12/06 11:15:52;;;;;;;16.08;7.30;;;4.20;99.90;;;;;;5010411;28;20042;-67
2020/12/06 11:18:18;;;;;;;14.85;7.75;;;4.20;99.90;;;;;;5009760;28;20038;-68
2020/12/06 11:20:43;;;;;;;16.27;8.15;;;4.20;99.90;;;;;;5009843;28;20033;-68
2020/12/06 11:23:09;;;;;;;16.15;7.32;;;4.20;99.90;;;;;;5034340;28;20026;-67
2020/12/06 11:25:34;;;;;;;18.88;9.00;;;4.20;99.90;;;;;;5033773;28;20041;-67
2020/12/06 11:28:00;;;;;;;21.40;9.25;;;4.20;99.90;;;;;;5010207;28;20193;-67
2020/12/06 11:30:25;;;;;;;15.02;7.50;;;4.20;99.90;;;;;;5010029;28;20549;-67
2020/12/06 11:32:51;;;;;;;15.60;8.27;;;4.30;99.90;;;;;;5010052;28;20133;-67
2020/12/06 11:35:16;;;;;;;13.68;7.55;;;4.30;99.90;;;;;;5009929;28;20042;-68
2020/12/06 11:37:42;;;;;;;18.58;8.77;;;4.30;99.90;;;;;;5032808;28;20087;-68
2020/12/06 11:40:07;;;;;;;17.38;8.80;;;4.30;99.90;;;;;;5010129;28;20511;-66
2020/12/06 11:42:33;;;;;;;15.82;8.20;;;4.40;99.90;;;;;;5009409;28;20022;-67
2020/12/06 11:44:59;;;;;;;17.98;8.77;;;4.40;99.90;;;;;;5009887;28;21712;-67
2020/12/06 11:47:25;;;;;;;18.90;7.25;;;4.50;99.90;;;;;;5009103;28;20121;-68
2020/12/06 11:49:50;;;;;;;17.38;7.97;;;4.50;99.90;;;;;;5029978;28;20030;-67
2020/12/06 11:52:16;;;;;;;19.20;9.27;;;4.50;99.90;;;;;;5009948;28;20494;-67
2020/12/06 11:54:41;;;;;;;17.35;7.80;;;4.50;99.90;;;;;;5008080;28;20034;-67
2020/12/06 11:57:07;;;;;;;17.40;8.75;;;4.50;99.90;;;;;;5032714;28;20088;-68
2020/12/06 11:59:32;;;;;;;18.52;8.48;;;4.50;99.90;;;;;;5007823;28;20042;-67
2020/12/06 12:01:58;;;;;;;18.02;9.13;;;4.50;99.90;;;;;;5009555;28;20056;-68
2020/12/06 12:04:24;;;;;;;14.82;8.10;;;4.40;99.90;;;;;;5032947;28;20041;-68
2020/12/06 12:06:50;;;;;;;16.67;8.43;;;4.50;99.90;;;;;;5009404;28;20038;-68
2020/12/06 12:09:15;;;;;;;16.30;8.45;;;4.60;99.90;;;;;;5032813;28;20030;-68
2020/12/06 12:11:41;;;;;;;16.83;7.85;;;4.50;99.90;;;;;;5009043;28;20044;-67
2020/12/06 12:14:07;;;;;;;18.40;8.98;;;4.50;99.90;;;;;;5009382;28;20038;-67
2020/12/06 12:16:33;;;;;;;19.13;8.30;;;4.60;99.90;;;;;;5003751;28;20034;-67
2020/12/06 12:19:05;;;;;;;18.58;8.57;;;4.60;99.90;;;;;;5008837;28;20034;-68
2020/12/06 12:21:34;;;;;;;16.85;8.90;;;4.60;99.90;;;;;;5009073;28;20060;-68
2020/12/06 12:24:00;;;;;;;18.95;9.07;;;4.70;99.90;;;;;;5009602;28;20057;-68
2020/12/06 12:26:26;;;;;;;15.38;7.88;;;4.70;99.90;;;;;;5013196;28;20041;-68
2020/12/06 12:28:52;;;;;;;20.30;8.90;;;4.70;99.90;;;;;;5014669;28;20033;-67
2020/12/06 12:31:18;;;;;;;15.95;7.97;;;4.70;99.90;;;;;;5009030;28;20068;-67
2020/12/06 12:33:44;;;;;;;21.88;8.98;;;4.70;99.90;;;;;;5007031;28;20057;-68
2020/12/06 12:36:10;;;;;;;18.70;7.85;;;4.70;99.90;;;;;;5008821;28;20462;-67
2020/12/06 12:38:35;;;;;;;16.27;8.23;;;4.70;99.90;;;;;;5037520;28;20038;-68
2020/12/06 12:41:01;;;;;;;16.73;8.18;;;4.70;99.90;;;;;;5007576;28;20449;-67
2020/12/06 12:43:27;;;;;;;21.92;9.02;;;4.70;99.90;;;;;;5007634;28;20030;-67
2020/12/06 12:45:52;;;;;;;17.17;8.45;;;4.70;99.90;;;;;;5011983;28;20037;-67
2020/12/06 12:48:18;;;;;;;18.02;8.18;;;4.70;99.90;;;;;;5009181;28;20121;-67